createdAt,value
2023-05-21T00:02:19.676Z,19.35
2023-05-21T00:04:46.290Z,18.97
2023-05-21T00:07:13.382Z,19.03
2023-05-21T00:09:39.782Z,18.30
2023-05-21T00:12:08.197Z,18.96
2023-05-21T00:14:35.536Z,19.01
2023-05-21T00:17:02.020Z,18.84
2023-05-21T00:19:28.505Z,18.81
2023-05-21T00:21:55.900Z,18.41
2023-05-21T00:24:22.291Z,18.34
2023-05-21T00:26:48.677Z,18.64
2023-05-21T00:29:15.092Z,18.46
2023-05-21T00:31:41.535Z,18.49
2023-05-21T00:34:07.987Z,18.35
2023-05-21T00:36:34.759Z,18.47
2023-05-21T00:39:02.352Z,17.94
2023-05-21T00:41:30.123Z,18.44
2023-05-21T00:44:00.230Z,18.65
2023-05-21T00:46:28.499Z,18.65
2023-05-21T00:48:55.479Z,18.29
2023-05-21T00:51:22.125Z,18.55
2023-05-21T00:53:52.522Z,18.54
2023-05-21T00:56:22.575Z,18.57
2023-05-21T00:58:51.708Z,18.43
2023-05-21T01:01:18.468Z,18.36
2023-05-21T01:03:44.990Z,18.27
2023-05-21T01:06:13.917Z,18.47
2023-05-21T01:08:41.610Z,18.10
2023-05-21T01:11:09.420Z,17.84
2023-05-21T01:13:39.870Z,17.87
2023-05-21T01:16:06.720Z,18.00
2023-05-21T01:18:43.470Z,18.19
2023-05-21T01:21:10.232Z,18.37
2023-05-21T01:23:36.765Z,17.28
2023-05-21T01:26:03.154Z,17.65
2023-05-21T01:28:29.872Z,18.33
2023-05-21T01:31:02.881Z,18.20
2023-05-21T01:33:49.902Z,18.07
2023-05-21T01:36:26.836Z,18.27
2023-05-21T01:39:23.837Z,18.32
2023-05-21T01:41:53.362Z,18.00
2023-05-21T01:44:20.913Z,17.93
2023-05-21T01:46:47.359Z,18.09
2023-05-21T01:49:15.758Z,18.17
2023-05-21T01:51:42.800Z,17.96
2023-05-21T01:54:09.191Z,17.77
2023-05-21T01:56:36.976Z,17.98
2023-05-21T01:59:03.451Z,18.03
2023-05-21T02:01:30.590Z,18.15
2023-05-21T02:03:58.058Z,17.31
2023-05-21T02:06:24.611Z,17.40
2023-05-21T02:08:51.053Z,17.85
2023-05-21T02:11:17.609Z,17.75
2023-05-21T02:13:46.049Z,17.94
2023-05-21T02:16:14.578Z,18.01
2023-05-21T02:18:43.599Z,18.02
2023-05-21T02:21:13.489Z,17.75
2023-05-21T02:23:39.949Z,17.80
2023-05-21T02:26:06.366Z,17.80
2023-05-21T02:28:33.746Z,17.53
2023-05-21T02:31:00.562Z,17.74
2023-05-21T02:33:26.975Z,17.77
2023-05-21T02:35:53.524Z,17.62
2023-05-21T02:38:23.053Z,17.14
2023-05-21T02:40:53.290Z,17.50
2023-05-21T02:43:19.875Z,17.60
2023-05-21T02:45:46.336Z,17.65
2023-05-21T02:48:12.830Z,17.68
2023-05-21T02:50:39.348Z,17.70
2023-05-21T02:53:06.314Z,17.03
2023-05-21T02:55:32.717Z,17.70
2023-05-21T02:57:59.086Z,17.65
2023-05-21T03:00:25.451Z,17.50
2023-05-21T03:02:51.868Z,17.28
2023-05-21T03:05:18.386Z,17.65
2023-05-21T03:07:44.780Z,17.61
2023-05-21T03:10:11.203Z,17.69
2023-05-21T03:12:37.975Z,17.73
2023-05-21T03:15:04.873Z,17.60
2023-05-21T03:17:32.269Z,17.56
2023-05-21T03:19:58.748Z,17.52
2023-05-21T03:22:25.217Z,17.47
2023-05-21T03:24:51.605Z,17.80
2023-05-21T03:27:18.017Z,17.80
2023-05-21T03:29:44.610Z,17.63
2023-05-21T03:32:11.135Z,17.60
2023-05-21T03:34:37.627Z,17.67
2023-05-21T03:37:04.106Z,17.37
2023-05-21T03:39:30.503Z,17.45
2023-05-21T03:41:56.904Z,17.60
2023-05-21T03:44:23.303Z,17.35
2023-05-21T03:46:49.697Z,17.48
2023-05-21T03:49:16.172Z,17.46
2023-05-21T03:51:42.655Z,17.58
2023-05-21T03:54:09.096Z,17.54
2023-05-21T03:56:35.626Z,17.55
2023-05-21T03:59:02.191Z,17.59
2023-05-21T04:01:32.889Z,16.89
2023-05-21T04:03:59.446Z,17.58
2023-05-21T04:06:25.950Z,17.33
2023-05-21T04:08:52.390Z,17.53
2023-05-21T04:11:18.862Z,17.55
2023-05-21T04:13:46.095Z,17.58
2023-05-21T04:16:14.733Z,16.91
2023-05-21T04:18:45.661Z,17.36
2023-05-21T04:21:12.386Z,17.57
2023-05-21T04:23:38.799Z,17.44
2023-05-21T04:26:05.235Z,17.35
2023-05-21T04:28:31.684Z,17.64
2023-05-21T04:30:58.775Z,17.51
2023-05-21T04:33:25.649Z,17.61
2023-05-21T04:35:52.125Z,17.47
2023-05-21T04:38:19.767Z,17.54
2023-05-21T04:40:53.142Z,17.70
2023-05-21T04:43:25.745Z,17.74
2023-05-21T04:45:54.694Z,17.80
2023-05-21T04:48:24.570Z,17.17
2023-05-21T04:50:51.953Z,17.47
2023-05-21T04:53:18.342Z,17.69
2023-05-21T04:55:44.788Z,17.28
2023-05-21T04:58:11.196Z,17.76
2023-05-21T05:00:38.335Z,17.79
2023-05-21T05:03:05.160Z,17.68
2023-05-21T05:05:31.637Z,17.85
2023-05-21T05:07:58.206Z,17.53
2023-05-21T05:10:24.593Z,17.40
2023-05-21T05:12:50.951Z,17.78
2023-05-21T05:15:17.346Z,17.68
2023-05-21T05:17:44.745Z,17.86
2023-05-21T05:20:11.592Z,17.84
2023-05-21T05:22:38.077Z,17.81
2023-05-21T05:25:04.976Z,17.36
2023-05-21T05:27:31.436Z,17.68
2023-05-21T05:29:57.869Z,17.85
2023-05-21T05:32:24.292Z,17.92
2023-05-21T05:34:50.785Z,17.89
2023-05-21T05:37:17.244Z,17.92
2023-05-21T05:39:43.674Z,17.44
2023-05-21T05:42:10.062Z,18.02
2023-05-21T05:44:36.588Z,18.01
2023-05-21T05:47:03.085Z,17.84
2023-05-21T05:49:29.514Z,18.21
2023-05-21T05:51:56.638Z,18.03
2023-05-21T05:54:23.079Z,18.23
2023-05-21T05:56:49.452Z,17.34
2023-05-21T05:59:16.472Z,18.28
2023-05-21T06:01:42.937Z,17.81
2023-05-21T06:04:09.422Z,18.35
2023-05-21T06:06:36.708Z,17.84
2023-05-21T06:09:03.169Z,17.65
2023-05-21T06:11:29.654Z,17.76
2023-05-21T06:13:56.702Z,18.21
2023-05-21T06:16:23.258Z,18.54
2023-05-21T06:18:49.767Z,18.60
2023-05-21T06:21:16.390Z,18.69
2023-05-21T06:23:42.817Z,18.25
2023-05-21T06:26:09.291Z,18.38
2023-05-21T06:28:36.209Z,18.43
2023-05-21T06:31:02.713Z,18.80
2023-05-21T06:33:29.234Z,18.87
2023-05-21T06:35:56.010Z,18.83
2023-05-21T06:38:22.469Z,18.74
2023-05-21T06:40:49.464Z,18.96
2023-05-21T06:43:15.994Z,18.40
2023-05-21T06:45:42.498Z,18.90
2023-05-21T06:48:09.144Z,18.17
2023-05-21T06:50:35.650Z,18.31
2023-05-21T06:53:02.099Z,19.12
2023-05-21T06:55:28.588Z,19.02
2023-05-21T06:57:57.454Z,19.29
2023-05-21T07:00:23.933Z,19.31
2023-05-21T07:02:50.690Z,18.82
2023-05-21T07:05:17.258Z,19.57
2023-05-21T07:07:43.736Z,19.64
2023-05-21T07:10:10.639Z,19.16
2023-05-21T07:12:37.078Z,19.20
2023-05-21T07:15:03.709Z,19.15
2023-05-21T07:17:30.221Z,19.93
2023-05-21T07:19:56.679Z,19.80
2023-05-21T07:22:23.039Z,19.75
2023-05-21T07:24:49.451Z,19.45
2023-05-21T07:27:25.252Z,19.72
2023-05-21T07:29:52.486Z,20.24
2023-05-21T07:32:18.889Z,20.10
2023-05-21T07:34:45.982Z,19.68
2023-05-21T07:37:13.766Z,20.38
2023-05-21T07:39:40.503Z,20.26
2023-05-21T07:42:11.222Z,20.05
2023-05-21T07:44:37.754Z,20.23
2023-05-21T07:47:05.149Z,19.41
2023-05-21T07:49:31.621Z,19.68
2023-05-21T07:51:58.035Z,19.79
2023-05-21T07:54:24.458Z,20.40
2023-05-21T07:56:50.963Z,20.43
2023-05-21T07:59:17.388Z,19.94
2023-05-21T08:01:44.160Z,19.95
2023-05-21T08:04:11.152Z,20.63
2023-05-21T08:06:37.779Z,20.27
2023-05-21T08:09:06.153Z,20.58
2023-05-21T08:11:33.132Z,20.83
2023-05-21T08:14:00.057Z,20.66
2023-05-21T08:16:26.905Z,20.17
2023-05-21T08:18:53.604Z,20.67
2023-05-21T08:21:20.137Z,20.82
2023-05-21T08:23:46.576Z,20.57
2023-05-21T08:26:13.041Z,20.79
2023-05-21T08:28:39.539Z,20.83
2023-05-21T08:31:06.052Z,20.92
2023-05-21T08:33:37.072Z,20.88
2023-05-21T08:36:07.258Z,20.68
2023-05-21T08:38:35.141Z,20.95
2023-05-21T08:41:01.559Z,21.02
2023-05-21T08:43:29.137Z,20.47
2023-05-21T08:45:59.075Z,20.85
2023-05-21T08:48:25.739Z,20.93
2023-05-21T08:50:53.480Z,21.13
2023-05-21T08:53:28.072Z,21.14
2023-05-21T08:55:57.240Z,20.67
2023-05-21T08:58:24.348Z,21.21
2023-05-21T09:00:50.998Z,21.15
2023-05-21T09:03:17.929Z,21.38
2023-05-21T09:05:45.740Z,21.50
2023-05-21T09:08:19.408Z,21.60
2023-05-21T09:10:50.629Z,21.62
2023-05-21T09:13:18.286Z,21.80
2023-05-21T09:15:45.759Z,21.75
2023-05-21T09:18:12.727Z,21.59
2023-05-21T09:20:39.900Z,22.01
2023-05-21T09:23:12.389Z,22.02
2023-05-21T09:25:39.624Z,21.90
2023-05-21T09:28:12.952Z,22.10
2023-05-21T09:30:53.525Z,21.88
2023-05-21T09:33:29.530Z,22.09
2023-05-21T09:35:56.479Z,22.12
2023-05-21T09:38:23.974Z,21.88
2023-05-21T09:40:50.504Z,21.93
2023-05-21T09:43:17.242Z,22.08
2023-05-21T09:45:59.725Z,22.65
2023-05-21T09:48:34.678Z,22.73
2023-05-21T09:51:18.529Z,22.74
2023-05-21T09:53:50.127Z,22.38
2023-05-21T09:56:19.197Z,22.58
2023-05-21T09:58:46.267Z,22.70
2023-05-21T10:01:13.357Z,22.68
2023-05-21T10:03:42.614Z,22.50
2023-05-21T10:06:10.074Z,22.97
2023-05-21T10:08:41.011Z,23.13
2023-05-21T10:11:08.922Z,23.49
2023-05-21T10:13:41.593Z,23.76
2023-05-21T10:16:08.454Z,23.55
2023-05-21T10:18:37.656Z,23.85
2023-05-21T10:21:07.091Z,24.60
2023-05-21T10:23:36.182Z,23.56
2023-05-21T10:26:04.060Z,24.26
2023-05-21T10:28:37.596Z,24.30
2023-05-21T10:31:04.380Z,24.40
2023-05-21T10:33:32.032Z,24.37
2023-05-21T10:35:59.365Z,24.77
2023-05-21T10:38:27.599Z,24.80
2023-05-21T10:40:55.793Z,24.58
2023-05-21T10:43:59.529Z,25.23
2023-05-21T10:47:08.673Z,25.53
2023-05-21T10:49:49.486Z,25.72
2023-05-21T10:52:34.850Z,25.61
2023-05-21T10:55:26.954Z,25.92
2023-05-21T10:58:12.278Z,26.07
2023-05-21T11:00:39.326Z,25.89
2023-05-21T11:03:07.685Z,26.24
2023-05-21T11:05:55.254Z,26.65
2023-05-21T11:08:35.647Z,26.97
2023-05-21T11:11:03.487Z,26.73
2023-05-21T11:13:49.152Z,26.99
2023-05-21T11:16:17.117Z,26.78
2023-05-21T11:18:46.533Z,27.13
2023-05-21T11:21:18.194Z,26.53
2023-05-21T11:23:50.684Z,26.58
2023-05-21T11:26:18.612Z,26.48
2023-05-21T11:28:45.164Z,26.49
2023-05-21T11:31:28.045Z,26.32
2023-05-21T11:34:21.750Z,26.72
2023-05-21T11:36:49.720Z,26.67
2023-05-21T11:39:25.409Z,26.20
2023-05-21T11:41:53.276Z,26.17
2023-05-21T11:44:37.464Z,26.24
2023-05-21T11:47:04.715Z,26.46
2023-05-21T11:49:31.827Z,26.31
2023-05-21T11:52:00.500Z,26.39
2023-05-21T11:54:27.961Z,26.56
2023-05-21T11:56:54.959Z,26.82
2023-05-21T11:59:21.430Z,26.88
2023-05-21T12:01:47.797Z,27.75
2023-05-21T12:04:14.232Z,27.45
2023-05-21T12:06:44.046Z,27.31
2023-05-21T12:09:11.130Z,27.46
2023-05-21T12:11:41.386Z,27.32
2023-05-21T12:14:11.218Z,27.49
2023-05-21T12:16:39.342Z,27.88
2023-05-21T12:19:06.731Z,28.01
2023-05-21T12:21:34.091Z,28.63
2023-05-21T12:24:00.555Z,28.44
2023-05-21T12:26:27.652Z,28.44
2023-05-21T12:28:55.100Z,29.04
2023-05-21T12:31:22.956Z,29.26
2023-05-21T12:33:50.942Z,29.44
2023-05-21T12:36:28.236Z,29.06
2023-05-21T12:38:54.652Z,29.10
2023-05-21T12:41:22.047Z,29.06
2023-05-21T12:43:49.093Z,29.06
2023-05-21T12:46:17.608Z,28.94
2023-05-21T12:48:55.446Z,28.99
2023-05-21T12:51:22.378Z,28.76
2023-05-21T12:53:48.897Z,28.69
2023-05-21T12:56:15.932Z,28.55
2023-05-21T12:58:43.005Z,28.01
2023-05-21T13:01:11.253Z,28.35
2023-05-21T13:03:38.941Z,27.97
2023-05-21T13:06:09.266Z,28.61
2023-05-21T13:08:35.767Z,28.92
2023-05-21T13:11:03.464Z,29.20
2023-05-21T13:13:30.565Z,29.25
2023-05-21T13:15:57.107Z,28.84
2023-05-21T13:18:23.663Z,29.27
2023-05-21T13:20:51.606Z,28.90
2023-05-21T13:23:18.031Z,29.45
2023-05-21T13:25:44.601Z,29.25
2023-05-21T13:28:14.941Z,29.25
2023-05-21T13:30:41.410Z,29.12
2023-05-21T13:33:08.031Z,29.44
2023-05-21T13:35:34.716Z,29.45
2023-05-21T13:38:01.159Z,29.88
2023-05-21T13:40:27.764Z,29.87
2023-05-21T13:42:54.197Z,29.75
2023-05-21T13:45:21.040Z,29.84
2023-05-21T13:47:48.197Z,29.52
2023-05-21T13:50:16.132Z,29.19
2023-05-21T13:52:42.607Z,29.53
2023-05-21T13:55:09.920Z,29.75
2023-05-21T13:57:36.446Z,29.68
2023-05-21T14:00:03.914Z,29.75
2023-05-21T14:02:30.506Z,29.81
2023-05-21T14:04:57.135Z,29.66
2023-05-21T14:07:23.606Z,29.50
2023-05-21T14:09:50.111Z,29.78
2023-05-21T14:12:17.018Z,29.84
2023-05-21T14:14:43.629Z,29.80
2023-05-21T14:17:10.084Z,29.96
2023-05-21T14:19:36.582Z,29.86
2023-05-21T14:22:02.968Z,29.69
2023-05-21T14:24:29.403Z,29.51
2023-05-21T14:26:55.800Z,29.65
2023-05-21T14:29:22.209Z,29.73
2023-05-21T14:31:48.705Z,30.09
2023-05-21T14:34:15.293Z,29.92
2023-05-21T14:36:41.823Z,30.04
2023-05-21T14:39:08.252Z,29.07
2023-05-21T14:41:39.102Z,29.67
2023-05-21T14:44:05.680Z,29.90
2023-05-21T14:46:32.525Z,30.02
2023-05-21T14:49:00.149Z,30.37
2023-05-21T14:51:26.648Z,30.05
2023-05-21T14:53:53.064Z,30.39
2023-05-21T14:56:21.889Z,30.02
2023-05-21T14:58:48.540Z,30.10
2023-05-21T15:01:15.065Z,29.90
2023-05-21T15:03:41.624Z,30.15
2023-05-21T15:06:08.340Z,30.26
2023-05-21T15:08:34.808Z,30.05
2023-05-21T15:11:01.200Z,30.80
2023-05-21T15:13:27.961Z,30.69
2023-05-21T15:15:54.481Z,30.23
2023-05-21T15:18:20.980Z,30.46
2023-05-21T15:20:47.632Z,30.46
2023-05-21T15:23:17.182Z,30.54
2023-05-21T15:25:44.857Z,30.34
2023-05-21T15:28:12.015Z,30.09
2023-05-21T15:30:38.554Z,29.82
2023-05-21T15:33:05.382Z,29.51
2023-05-21T15:35:32.007Z,29.51
2023-05-21T15:37:58.471Z,29.28
2023-05-21T15:40:26.933Z,29.30
2023-05-21T15:42:53.806Z,29.11
2023-05-21T15:45:20.396Z,29.27
2023-05-21T15:47:46.867Z,28.94
2023-05-21T15:50:13.304Z,29.48
2023-05-21T15:52:41.304Z,29.85
2023-05-21T15:55:08.175Z,30.16
2023-05-21T15:57:34.607Z,30.18
2023-05-21T16:00:01.066Z,29.98
2023-05-21T16:02:27.551Z,29.96
2023-05-21T16:04:54.013Z,30.04
2023-05-21T16:07:21.341Z,29.92
2023-05-21T16:09:47.855Z,30.14
2023-05-21T16:12:14.317Z,29.99
2023-05-21T16:14:41.329Z,30.31
2023-05-21T16:17:08.121Z,30.48
2023-05-21T16:19:34.750Z,30.29
2023-05-21T16:22:01.981Z,29.84
2023-05-21T16:24:28.351Z,29.89
2023-05-21T16:26:55.383Z,29.72
2023-05-21T16:29:22.317Z,29.66
2023-05-21T16:31:49.111Z,29.17
2023-05-21T16:34:16.035Z,29.11
2023-05-21T16:36:42.822Z,28.84
2023-05-21T16:39:09.351Z,28.84
2023-05-21T16:41:35.816Z,28.66
2023-05-21T16:44:02.290Z,28.64
2023-05-21T16:46:28.691Z,28.61
2023-05-21T16:48:55.070Z,28.56
2023-05-21T16:51:21.427Z,28.42
2023-05-21T16:53:48.183Z,28.49
2023-05-21T16:56:14.816Z,28.48
2023-05-21T16:58:41.257Z,28.36
2023-05-21T17:01:07.703Z,28.18
2023-05-21T17:03:34.359Z,28.29
2023-05-21T17:06:00.830Z,28.03
2023-05-21T17:08:27.235Z,28.07
2023-05-21T17:10:53.673Z,28.09
2023-05-21T17:13:22.742Z,28.18
2023-05-21T17:15:51.155Z,28.09
2023-05-21T17:18:17.739Z,28.16
2023-05-21T17:20:44.283Z,27.78
2023-05-21T17:23:11.839Z,28.16
2023-05-21T17:25:38.647Z,28.01
2023-05-21T17:28:05.434Z,28.02
2023-05-21T17:30:31.870Z,28.33
2023-05-21T17:32:58.375Z,28.35
2023-05-21T17:35:24.918Z,28.32
2023-05-21T17:37:53.199Z,27.73
2023-05-21T17:40:21.318Z,27.63
2023-05-21T17:42:47.948Z,27.46
2023-05-21T17:45:14.422Z,27.42
2023-05-21T17:47:40.957Z,27.79
2023-05-21T17:50:08.124Z,27.82
2023-05-21T17:52:34.548Z,27.86
2023-05-21T17:55:01.677Z,27.42
2023-05-21T17:57:28.245Z,27.86
2023-05-21T17:59:55.458Z,27.60
2023-05-21T18:02:23.446Z,27.84
2023-05-21T18:04:50.085Z,27.71
2023-05-21T18:07:16.672Z,27.54
2023-05-21T18:09:43.322Z,26.90
2023-05-21T18:12:09.731Z,27.07
2023-05-21T18:14:36.186Z,26.73
2023-05-21T18:17:02.831Z,27.47
2023-05-21T18:19:30.388Z,27.46
2023-05-21T18:21:57.179Z,27.19
2023-05-21T18:24:23.653Z,27.44
2023-05-21T18:26:50.124Z,26.83
2023-05-21T18:29:16.530Z,26.98
2023-05-21T18:31:44.634Z,27.21
2023-05-21T18:34:11.163Z,27.00
2023-05-21T18:36:40.672Z,27.30
2023-05-21T18:39:09.939Z,27.09
2023-05-21T18:41:37.364Z,27.39
2023-05-21T18:44:05.803Z,27.11
2023-05-21T18:46:32.296Z,26.87
2023-05-21T18:49:00.548Z,26.44
2023-05-21T18:51:27.052Z,26.69
2023-05-21T18:53:53.617Z,26.84
2023-05-21T18:56:20.061Z,26.84
2023-05-21T18:58:47.657Z,26.51
2023-05-21T19:01:14.175Z,26.56
2023-05-21T19:03:40.789Z,27.05
2023-05-21T19:06:08.445Z,27.03
2023-05-21T19:08:35.046Z,26.69
2023-05-21T19:11:01.602Z,26.83
2023-05-21T19:13:28.130Z,26.83
2023-05-21T19:15:54.688Z,26.59
2023-05-21T19:18:21.066Z,26.52
2023-05-21T19:20:47.493Z,26.66
2023-05-21T19:23:14.256Z,26.61
2023-05-21T19:25:41.476Z,26.32
2023-05-21T19:28:07.856Z,26.54
2023-05-21T19:30:36.381Z,26.45
2023-05-21T19:33:03.276Z,26.48
2023-05-21T19:35:30.132Z,26.45
2023-05-21T19:38:00.160Z,26.37
2023-05-21T19:40:28.179Z,26.23
2023-05-21T19:42:54.591Z,26.07
2023-05-21T19:45:21.529Z,26.22
2023-05-21T19:47:48.544Z,25.69
2023-05-21T19:50:15.027Z,26.01
2023-05-21T19:52:41.446Z,26.04
2023-05-21T19:55:10.190Z,26.13
2023-05-21T19:57:37.150Z,26.22
2023-05-21T20:00:05.320Z,26.10
2023-05-21T20:02:31.997Z,25.83
2023-05-21T20:04:59.090Z,25.76
2023-05-21T20:07:25.814Z,25.68
2023-05-21T20:09:52.378Z,25.92
2023-05-21T20:12:19.005Z,25.67
2023-05-21T20:14:47.321Z,25.67
2023-05-21T20:17:14.402Z,25.73
2023-05-21T20:19:41.030Z,25.70
2023-05-21T20:22:07.474Z,25.62
2023-05-21T20:24:33.849Z,25.58
2023-05-21T20:27:01.521Z,25.58
2023-05-21T20:29:28.683Z,25.55
2023-05-21T20:31:55.271Z,25.33
2023-05-21T20:34:21.792Z,25.49
2023-05-21T20:36:48.372Z,25.29
2023-05-21T20:39:15.561Z,25.39
2023-05-21T20:41:44.486Z,25.47
2023-05-21T20:44:11.100Z,25.32
2023-05-21T20:46:38.259Z,25.53
2023-05-21T20:49:05.177Z,25.36
2023-05-21T20:51:31.710Z,25.31
2023-05-21T20:53:58.270Z,25.21
2023-05-21T20:56:37.464Z,25.03
2023-05-21T20:59:09.966Z,25.13
2023-05-21T21:01:37.750Z,25.21
2023-05-21T21:04:04.795Z,25.18
2023-05-21T21:06:31.684Z,24.99
2023-05-21T21:08:58.171Z,24.56
2023-05-21T21:11:24.640Z,25.02
2023-05-21T21:13:51.756Z,24.99
2023-05-21T21:16:18.172Z,24.43
2023-05-21T21:18:45.999Z,25.11
2023-05-21T21:21:12.544Z,25.09
2023-05-21T21:23:39.019Z,25.12
2023-05-21T21:26:05.578Z,25.24
2023-05-21T21:28:31.967Z,25.19
2023-05-21T21:30:58.394Z,25.02
2023-05-21T21:33:26.440Z,25.06
2023-05-21T21:35:52.931Z,25.08
2023-05-21T21:38:19.292Z,24.88
2023-05-21T21:40:45.750Z,24.90
2023-05-21T21:43:12.140Z,24.72
2023-05-21T21:45:38.620Z,24.48
2023-05-21T21:48:05.225Z,24.52
2023-05-21T21:50:31.712Z,24.55
2023-05-21T21:52:58.088Z,24.52
2023-05-21T21:55:24.566Z,24.35
2023-05-21T21:57:51.244Z,23.92
2023-05-21T22:00:17.868Z,24.24
2023-05-21T22:02:46.553Z,24.38
2023-05-21T22:05:14.900Z,24.25
2023-05-21T22:07:42.630Z,24.26
2023-05-21T22:10:09.418Z,24.04
2023-05-21T22:12:35.908Z,24.07
2023-05-21T22:15:05.104Z,24.02
2023-05-21T22:17:32.712Z,23.94
2023-05-21T22:19:59.452Z,24.04
2023-05-21T22:22:26.225Z,24.22
2023-05-21T22:24:53.385Z,24.29
2023-05-21T22:27:20.268Z,24.25
2023-05-21T22:29:47.023Z,24.29
2023-05-21T22:32:13.709Z,24.16
2023-05-21T22:34:40.102Z,23.98
2023-05-21T22:37:06.473Z,24.01
2023-05-21T22:39:32.852Z,24.11
2023-05-21T22:41:59.578Z,24.22
2023-05-21T22:44:25.999Z,24.08
2023-05-21T22:46:52.455Z,23.86
2023-05-21T22:49:19.742Z,24.07
2023-05-21T22:51:46.301Z,24.10
2023-05-21T22:54:12.708Z,23.97
2023-05-21T22:56:39.106Z,23.77
2023-05-21T22:59:05.570Z,23.88
2023-05-21T23:01:32.014Z,23.79
2023-05-21T23:03:58.427Z,23.53
2023-05-21T23:06:24.801Z,23.78
2023-05-21T23:08:51.221Z,23.68
2023-05-21T23:11:17.639Z,23.77
2023-05-21T23:13:44.000Z,23.69
2023-05-21T23:16:10.431Z,23.68
2023-05-21T23:18:36.908Z,23.84
2023-05-21T23:21:03.424Z,23.87
2023-05-21T23:23:30.417Z,23.67
2023-05-21T23:25:58.743Z,24.02
2023-05-21T23:28:25.810Z,23.86
2023-05-21T23:30:52.602Z,23.66
2023-05-21T23:33:19.002Z,23.51
2023-05-21T23:35:45.441Z,23.23
2023-05-21T23:38:11.826Z,22.81
2023-05-21T23:40:38.511Z,23.37
2023-05-21T23:43:05.192Z,23.34
2023-05-21T23:45:31.697Z,23.25
2023-05-21T23:47:58.173Z,23.53
2023-05-21T23:50:24.894Z,23.59
2023-05-21T23:52:51.342Z,23.29
2023-05-21T23:55:17.801Z,23.35
2023-05-21T23:57:44.219Z,23.30
